Time;durP1;ratioP1;P1;durP2;ratioP2;P2;SDS_P1;SDS_P2;PMS_P1;PMS_P2;Temp;Humidity;BMP_temperature;BMP_pressure;BME280_temperature;BME280_humidity;BME280_pressure;Samples;Min_cycle;Max_cycle;Signal;HPM_P1;HPM_P2
2022/01/21 00:01:52;;;;;;;5.20;1.83;;;2.40;99.90;;;;;;5062694;28;20642;-89
2022/01/21 00:04:18;;;;;;;3.90;2.47;;;2.40;99.90;;;;;;5081748;28;20426;-94
2022/01/21 00:06:43;;;;;;;4.53;2.43;;;2.40;99.90;;;;;;5090521;28;20188;-93
2022/01/21 00:09:09;;;;;;;2.90;2.07;;;2.40;99.90;;;;;;5069708;28;20236;-96
2022/01/21 00:11:36;;;;;;;7.40;2.60;;;2.40;99.90;;;;;;5074125;28;20173;-88
2022/01/21 00:14:02;;;;;;;2.85;2.10;;;2.40;99.90;;;;;;5071796;28;20240;-89
2022/01/21 00:16:29;;;;;;;6.90;2.45;;;2.40;99.90;;;;;;5062895;28;20284;-94
2022/01/21 00:19:03;;;;;;;3.20;2.15;;;2.40;99.90;;;;;;5062584;28;20280;-89
2022/01/21 00:32:49;;;;;;;5.20;2.90;;;2.30;99.90;;;;;;5018038;28;20776;-96
2022/01/21 00:35:16;;;;;;;4.15;2.45;;;2.20;99.90;;;;;;5017925;28;20183;-89
2022/01/21 00:37:42;;;;;;;5.00;2.63;;;2.20;99.90;;;;;;5040107;28;20292;-96
2022/01/21 00:40:13;;;;;;;5.32;2.70;;;2.20;99.90;;;;;;5079866;28;20177;-93
2022/01/21 00:45:12;;;;;;;8.00;2.83;;;2.10;99.90;;;;;;5080208;28;20165;-94
2022/01/21 00:47:38;;;;;;;6.85;2.83;;;2.00;99.90;;;;;;5079410;28;20219;-89
2022/01/21 00:50:05;;;;;;;2.90;2.30;;;2.00;99.90;;;;;;5080283;28;20169;-96
2022/01/21 00:52:31;;;;;;;7.00;3.30;;;1.90;99.90;;;;;;5063619;28;21565;-96
2022/01/21 00:54:57;;;;;;;6.03;2.40;;;1.90;99.90;;;;;;5061133;28;20181;-91
2022/01/21 00:57:22;;;;;;;5.47;2.53;;;1.90;99.90;;;;;;5059860;28;20597;-89
2022/01/21 00:59:48;;;;;;;5.30;2.40;;;1.90;99.90;;;;;;5060353;28;20505;-89
2022/01/21 01:02:13;;;;;;;5.03;2.63;;;1.90;99.90;;;;;;5060638;28;20189;-96
2022/01/21 01:04:39;;;;;;;5.27;2.77;;;1.90;99.90;;;;;;5061177;28;20251;-94
2022/01/21 01:07:05;;;;;;;8.55;2.60;;;1.80;99.90;;;;;;5061157;28;20181;-96
2022/01/21 01:09:32;;;;;;;7.50;2.30;;;1.80;99.90;;;;;;5081709;28;20315;-96
2022/01/21 01:20:03;;;;;;;9.95;3.15;;;1.90;99.90;;;;;;5082530;28;20175;-89
2022/01/21 01:23:01;;;;;;;5.60;2.17;;;1.90;99.90;;;;;;5080051;28;20196;-89
2022/01/21 01:28:11;;;;;;;5.78;2.58;;;1.80;99.90;;;;;;5079943;28;20277;-92
2022/01/21 01:30:37;;;;;;;4.83;2.67;;;1.80;99.90;;;;;;5063918;28;20650;-95
2022/01/21 01:33:06;;;;;;;4.50;2.00;;;1.80;99.90;;;;;;5062841;28;20577;-96
2022/01/21 01:35:33;;;;;;;9.02;2.50;;;1.80;99.90;;;;;;5061279;28;20177;-89
2022/01/21 01:40:43;;;;;;;3.83;2.40;;;1.80;99.90;;;;;;5081324;28;20211;-95
2022/01/21 01:50:56;;;;;;;6.55;3.20;;;1.90;99.90;;;;;;5080099;28;20181;-96
2022/01/21 01:53:26;;;;;;;4.40;2.40;;;1.90;99.90;;;;;;5065828;28;20201;-95
2022/01/21 01:55:52;;;;;;;4.70;2.78;;;2.00;99.90;;;;;;5062526;28;20191;-89
2022/01/21 01:58:17;;;;;;;5.03;2.33;;;2.00;99.90;;;;;;5059071;28;20650;-89
2022/01/21 02:00:43;;;;;;;4.13;2.07;;;2.10;99.90;;;;;;5078249;28;20177;-95
2022/01/21 02:03:13;;;;;;;7.70;2.57;;;2.10;99.90;;;;;;5059624;28;20208;-89
2022/01/21 02:05:39;;;;;;;5.30;2.17;;;2.10;99.90;;;;;;5061934;28;20240;-89
2022/01/21 02:08:06;;;;;;;5.10;1.70;;;2.10;99.90;;;;;;5062327;28;20265;-96
2022/01/21 02:10:32;;;;;;;3.90;1.95;;;2.20;99.90;;;;;;5064503;28;20180;-96
2022/01/21 02:13:05;;;;;;;3.30;1.77;;;2.20;99.90;;;;;;5064047;28;20204;-89
2022/01/21 02:15:37;;;;;;;5.03;1.80;;;2.20;99.90;;;;;;5062422;28;20761;-95
2022/01/21 02:23:31;;;;;;;2.88;1.63;;;2.20;99.90;;;;;;5080253;28;20565;-96
2022/01/21 02:25:57;;;;;;;3.93;1.90;;;2.20;99.90;;;;;;5062063;28;20181;-96
2022/01/21 02:28:23;;;;;;;4.77;2.23;;;2.10;99.90;;;;;;5064044;28;20636;-89
2022/01/21 02:30:56;;;;;;;2.90;2.10;;;2.10;99.90;;;;;;5061562;28;20197;-89
2022/01/21 02:33:23;;;;;;;7.93;2.00;;;2.10;99.90;;;;;;5080189;28;20911;-95
2022/01/21 02:35:49;;;;;;;4.80;2.67;;;2.10;99.90;;;;;;5066853;28;20180;-94
2022/01/21 02:38:16;;;;;;;4.00;2.03;;;2.10;99.90;;;;;;5084886;28;20216;-88
2022/01/21 02:40:42;;;;;;;3.45;1.83;;;2.10;99.90;;;;;;5065871;28;20207;-88
2022/01/21 02:43:08;;;;;;;3.17;1.80;;;2.10;99.90;;;;;;5062910;28;20694;-89
2022/01/21 02:45:36;;;;;;;9.27;2.20;;;2.10;99.90;;;;;;5060119;28;20169;-88
2022/01/21 02:48:04;;;;;;;4.80;1.95;;;2.10;99.90;;;;;;5062931;28;20225;-91
2022/01/21 02:50:30;;;;;;;3.20;2.00;;;2.10;99.90;;;;;;5079158;28;20185;-96
2022/01/21 02:53:09;;;;;;;2.60;2.38;;;2.10;99.90;;;;;;5063117;28;20208;-96
2022/01/21 02:55:35;;;;;;;2.97;2.10;;;2.10;99.90;;;;;;5061654;28;20206;-87
2022/01/21 02:58:01;;;;;;;5.25;1.70;;;2.10;99.90;;;;;;5061579;28;20209;-96
2022/01/21 03:00:27;;;;;;;2.27;1.83;;;2.10;99.90;;;;;;5080486;28;20245;-93
2022/01/21 03:02:53;;;;;;;4.53;1.95;;;2.10;99.90;;;;;;5063168;28;20235;-95
2022/01/21 03:05:19;;;;;;;6.70;2.00;;;2.10;99.90;;;;;;5065930;28;20174;-94
2022/01/21 03:07:46;;;;;;;6.25;2.47;;;2.20;99.90;;;;;;5086859;28;20724;-89
2022/01/21 03:10:12;;;;;;;4.07;1.92;;;2.20;99.90;;;;;;5081126;28;20169;-95
2022/01/21 03:12:38;;;;;;;2.53;1.50;;;2.20;99.90;;;;;;5070733;28;20201;-89
2022/01/21 03:15:05;;;;;;;3.70;2.03;;;2.20;99.90;;;;;;5062758;28;20225;-89
2022/01/21 03:17:30;;;;;;;1.95;1.33;;;2.20;99.90;;;;;;5084887;28;20276;-96
2022/01/21 03:19:56;;;;;;;1.80;1.57;;;2.20;99.90;;;;;;5063339;28;20205;-95
2022/01/21 03:22:22;;;;;;;2.70;1.77;;;2.20;99.90;;;;;;5063055;28;20434;-89
2022/01/21 03:24:48;;;;;;;3.43;1.93;;;2.20;99.90;;;;;;5082143;28;20572;-94
2022/01/21 03:27:13;;;;;;;3.53;1.87;;;2.20;99.90;;;;;;5062396;28;20428;-96
2022/01/21 03:29:39;;;;;;;2.00;1.20;;;2.20;99.90;;;;;;5081366;28;20218;-94
2022/01/21 03:32:05;;;;;;;1.63;1.27;;;2.10;99.90;;;;;;5067209;28;20193;-89
2022/01/21 03:34:31;;;;;;;1.58;1.25;;;2.10;99.90;;;;;;5062564;28;20795;-95
2022/01/21 03:36:56;;;;;;;3.70;1.37;;;2.00;99.90;;;;;;5062055;28;20182;-93
2022/01/21 03:39:22;;;;;;;3.57;1.30;;;2.00;99.90;;;;;;5062266;28;20180;-89
2022/01/21 03:41:48;;;;;;;1.23;0.80;;;1.90;99.90;;;;;;5081008;28;20585;-88
2022/01/21 03:44:13;;;;;;;1.27;1.17;;;1.90;99.90;;;;;;5061780;28;20231;-95
2022/01/21 03:46:39;;;;;;;4.50;1.40;;;1.80;99.90;;;;;;5080050;28;20165;-90
2022/01/21 03:49:07;;;;;;;6.10;1.67;;;1.80;99.90;;;;;;5063219;28;20328;-89
2022/01/21 03:51:33;;;;;;;1.40;1.30;;;1.70;99.90;;;;;;5063482;28;20430;-88
2022/01/21 03:53:59;;;;;;;2.30;1.00;;;1.70;99.90;;;;;;5067174;28;20197;-95
2022/01/21 03:56:25;;;;;;;6.77;1.87;;;1.70;99.90;;;;;;5080581;28;20177;-89
2022/01/21 03:58:51;;;;;;;2.87;1.17;;;1.60;99.90;;;;;;5064176;28;20567;-89
2022/01/21 04:01:18;;;;;;;2.00;1.60;;;1.60;99.90;;;;;;5083059;28;20258;-88
2022/01/21 04:03:44;;;;;;;3.35;1.25;;;1.60;99.90;;;;;;5063414;28;20204;-95
2022/01/21 04:06:10;;;;;;;2.63;1.50;;;1.60;99.90;;;;;;5064088;28;20181;-89
2022/01/21 04:08:36;;;;;;;1.48;1.35;;;1.50;99.90;;;;;;5063638;28;20214;-96
2022/01/21 04:11:03;;;;;;;1.23;1.10;;;1.50;99.90;;;;;;5084429;28;20259;-94
2022/01/21 04:13:29;;;;;;;4.57;1.95;;;1.50;99.90;;;;;;5064184;28;20268;-96
2022/01/21 04:15:58;;;;;;;1.77;1.67;;;1.50;99.90;;;;;;5064724;28;20665;-89
2022/01/21 04:18:24;;;;;;;4.20;1.70;;;1.50;99.90;;;;;;5063036;28;20208;-96
2022/01/21 04:20:50;;;;;;;1.60;1.30;;;1.40;99.90;;;;;;5080464;28;20170;-91
2022/01/21 04:23:19;;;;;;;2.60;2.25;;;1.50;99.90;;;;;;5063554;28;20241;-96
2022/01/21 04:25:45;;;;;;;1.77;1.58;;;1.40;99.90;;;;;;5062785;28;20173;-89
2022/01/21 04:28:11;;;;;;;2.20;1.70;;;1.40;99.90;;;;;;5063981;28;20229;-88
2022/01/21 04:30:37;;;;;;;3.15;1.85;;;1.40;99.90;;;;;;5062102;28;20234;-94
2022/01/21 04:33:04;;;;;;;1.90;1.53;;;1.30;99.90;;;;;;5065196;28;20590;-96
2022/01/21 04:35:30;;;;;;;3.75;1.70;;;1.30;99.90;;;;;;5062702;28;20396;-88
2022/01/21 04:38:00;;;;;;;1.45;1.30;;;1.20;99.90;;;;;;5062820;28;20201;-96
2022/01/21 04:40:30;;;;;;;6.60;1.65;;;1.20;99.90;;;;;;5080129;28;20733;-96
2022/01/21 04:48:28;;;;;;;1.70;1.60;;;1.10;99.90;;;;;;5080787;28;20223;-89
2022/01/21 04:51:00;;;;;;;1.98;1.70;;;1.10;99.90;;;;;;5062706;28;20231;-94
2022/01/21 04:53:28;;;;;;;5.07;1.92;;;1.00;99.90;;;;;;5082058;28;20560;-96
2022/01/21 04:55:54;;;;;;;3.55;1.52;;;1.00;99.90;;;;;;5085897;28;20570;-88
2022/01/21 04:58:21;;;;;;;5.97;2.00;;;1.00;99.90;;;;;;5089546;28;20209;-89
2022/01/21 05:00:47;;;;;;;4.18;2.10;;;1.00;99.90;;;;;;5063100;28;20212;-88
2022/01/21 05:03:13;;;;;;;1.77;1.48;;;0.90;99.90;;;;;;5078448;28;20193;-96
2022/01/21 05:05:39;;;;;;;3.00;1.45;;;0.90;99.90;;;;;;5063658;28;20606;-96
2022/01/21 05:08:20;;;;;;;5.20;2.15;;;0.90;99.90;;;;;;5080171;28;20278;-96
2022/01/21 05:10:45;;;;;;;2.95;1.92;;;0.90;99.90;;;;;;5063989;28;20275;-96
2022/01/21 05:13:14;;;;;;;2.50;1.60;;;0.90;99.90;;;;;;5079186;28;20228;-89
2022/01/21 05:18:08;;;;;;;4.63;2.30;;;0.80;99.90;;;;;;5084793;28;20198;-96
2022/01/21 05:20:34;;;;;;;2.23;1.63;;;0.80;99.90;;;;;;5082267;28;20637;-88
2022/01/21 05:22:59;;;;;;;4.17;1.70;;;0.90;99.90;;;;;;5086552;28;20173;-92
2022/01/21 05:25:25;;;;;;;2.63;1.90;;;0.90;99.90;;;;;;5070408;28;20180;-95
2022/01/21 05:27:53;;;;;;;3.27;1.93;;;0.90;99.90;;;;;;5074746;28;20212;-90
2022/01/21 05:30:19;;;;;;;2.38;2.15;;;0.90;99.90;;;;;;5075716;28;20192;-94
2022/01/21 05:32:45;;;;;;;3.45;1.77;;;0.90;99.90;;;;;;5092700;22;20701;-73
2022/01/21 05:35:12;;;;;;;2.83;1.60;;;0.90;99.90;;;;;;5048437;28;20573;-66
2022/01/21 05:37:39;;;;;;;1.77;1.60;;;1.30;99.90;;;;;;5069644;28;20511;-73
2022/01/21 05:40:07;;;;;;;2.67;1.55;;;1.60;99.90;;;;;;5016251;28;20181;-66
2022/01/21 05:42:39;;;;;;;4.20;2.20;;;1.90;99.90;;;;;;5052047;28;20210;-74
2022/01/21 05:47:37;;;;;;;6.50;1.60;;;1.70;99.90;;;;;;5045027;28;20214;-73
2022/01/21 05:50:06;;;;;;;5.72;2.72;;;1.60;99.90;;;;;;5027093;28;20169;-66
2022/01/21 05:52:40;;;;;;;2.47;2.10;;;1.50;99.90;;;;;;5051511;28;20213;-74
2022/01/21 05:55:09;;;;;;;2.45;2.17;;;1.40;99.90;;;;;;5033075;28;20549;-66
2022/01/21 05:57:35;;;;;;;4.32;2.83;;;1.30;99.90;;;;;;5034654;28;20214;-66
2022/01/21 06:00:03;;;;;;;4.38;2.67;;;1.30;99.90;;;;;;5032019;28;20175;-73
2022/01/21 06:02:31;;;;;;;3.70;3.33;;;1.30;99.90;;;;;;5052720;28;20206;-66
2022/01/21 06:04:58;;;;;;;6.22;3.55;;;1.20;99.90;;;;;;5034862;28;20201;-66
2022/01/21 06:07:24;;;;;;;4.10;3.38;;;1.20;99.90;;;;;;5035401;28;20702;-66
2022/01/21 06:09:51;;;;;;;7.35;2.80;;;1.20;99.90;;;;;;5035275;28;20182;-72
2022/01/21 06:12:20;;;;;;;3.17;2.55;;;1.20;99.90;;;;;;5035246;28;20682;-73
2022/01/21 06:14:47;;;;;;;4.22;2.90;;;1.10;99.90;;;;;;5033745;28;20210;-66
2022/01/21 06:17:14;;;;;;;4.63;3.25;;;1.10;99.90;;;;;;5034931;28;20246;-73
2022/01/21 06:19:40;;;;;;;4.95;2.78;;;1.10;99.90;;;;;;5033252;28;20189;-66
2022/01/21 06:22:14;;;;;;;3.35;2.88;;;1.10;99.90;;;;;;5035209;28;20201;-74
2022/01/21 06:24:43;;;;;;;5.43;2.20;;;1.10;99.90;;;;;;5033501;28;20623;-73
2022/01/21 06:27:11;;;;;;;7.43;3.22;;;1.00;99.90;;;;;;5039895;28;20211;-73
2022/01/21 06:29:43;;;;;;;4.28;2.40;;;1.00;99.90;;;;;;5035500;28;20182;-73
2022/01/21 06:32:09;;;;;;;5.57;2.80;;;0.90;99.90;;;;;;5047168;28;20261;-73
2022/01/21 06:34:40;;;;;;;4.75;3.00;;;0.90;99.90;;;;;;5053713;28;20182;-72
2022/01/21 06:37:07;;;;;;;5.70;3.55;;;0.90;99.90;;;;;;5050749;28;20623;-73
2022/01/21 06:39:33;;;;;;;6.57;3.17;;;0.80;99.90;;;;;;5051149;28;20654;-66
2022/01/21 06:42:00;;;;;;;4.10;2.60;;;0.80;99.90;;;;;;5051931;28;20198;-67
2022/01/21 06:44:28;;;;;;;3.88;2.42;;;0.70;99.90;;;;;;5035780;28;20424;-66
2022/01/21 06:47:00;;;;;;;4.15;2.40;;;0.70;99.90;;;;;;5041087;28;20190;-73
2022/01/21 06:49:29;;;;;;;2.75;2.55;;;0.70;99.90;;;;;;5046948;28;20702;-73
2022/01/21 06:51:58;;;;;;;4.72;2.55;;;0.70;99.90;;;;;;5049648;28;20198;-69
2022/01/21 06:54:27;;;;;;;3.88;3.05;;;0.70;99.90;;;;;;5038081;28;20193;-66
2022/01/21 06:56:55;;;;;;;5.63;3.10;;;0.70;99.90;;;;;;5042821;28;20197;-66
2022/01/21 06:59:21;;;;;;;5.25;2.65;;;0.70;99.90;;;;;;5053259;28;20230;-67
2022/01/21 07:02:32;;;;;;;3.15;2.63;;;0.70;99.90;;;;;;5072911;28;20541;-73
2022/01/21 07:04:59;;;;;;;4.00;2.78;;;0.70;99.90;;;;;;5065404;28;20651;-66
2022/01/21 07:07:34;;;;;;;6.78;3.00;;;0.70;99.90;;;;;;5063283;28;20252;-73
2022/01/21 07:10:04;;;;;;;4.80;2.90;;;0.80;99.90;;;;;;5052214;28;20765;-72
2022/01/21 07:12:32;;;;;;;4.50;3.00;;;0.80;99.90;;;;;;5048743;28;20210;-74
2022/01/21 07:14:59;;;;;;;3.05;2.10;;;0.80;99.90;;;;;;5052577;28;20708;-74
2022/01/21 07:17:25;;;;;;;8.02;3.50;;;0.90;99.90;;;;;;5047047;28;20209;-67
2022/01/21 07:19:51;;;;;;;3.85;2.75;;;0.90;99.90;;;;;;5050629;28;20532;-67
2022/01/21 07:22:19;;;;;;;6.63;3.00;;;1.10;99.90;;;;;;5046256;28;20209;-67
2022/01/21 07:24:46;;;;;;;5.35;2.97;;;1.20;99.90;;;;;;5050737;28;20189;-67
2022/01/21 07:27:38;;;;;;;5.80;3.05;;;1.50;99.90;;;;;;5051644;28;20279;-66
2022/01/21 07:30:13;;;;;;;3.53;2.95;;;1.70;99.90;;;;;;5048380;28;20631;-67
2022/01/21 07:32:42;;;;;;;2.60;2.40;;;1.80;99.90;;;;;;5047423;28;20711;-67
2022/01/21 07:35:14;;;;;;;3.20;2.45;;;1.90;99.90;;;;;;5046213;28;20213;-74
2022/01/21 07:37:40;;;;;;;4.50;3.05;;;1.90;99.90;;;;;;5055466;28;20240;-66
2022/01/21 07:40:26;;;;;;;6.38;3.50;;;1.90;99.90;;;;;;5033500;28;20261;-66
2022/01/21 07:44:04;;;;;;;6.97;3.00;;;1.90;99.90;;;;;;5046073;28;20679;-66
2022/01/21 07:46:41;;;;;;;6.35;3.92;;;2.00;99.90;;;;;;5043496;28;20198;-67
2022/01/21 07:52:23;;;;;;;4.97;3.40;;;2.20;99.90;;;;;;5045035;28;20241;-75
2022/01/21 07:54:50;;;;;;;5.30;3.67;;;2.80;99.90;;;;;;5044816;28;20640;-75
2022/01/21 07:57:16;;;;;;;7.55;4.15;;;3.20;99.90;;;;;;5050051;28;20217;-67
2022/01/21 07:59:45;;;;;;;7.82;4.35;;;3.40;99.90;;;;;;5045762;28;20194;-68
2022/01/21 08:03:04;;;;;;;6.05;3.45;;;3.70;99.90;;;;;;5047334;28;20232;-75
2022/01/21 08:05:52;;;;;;;4.03;2.67;;;4.00;99.90;;;;;;5042553;28;20658;-67
2022/01/21 08:08:26;;;;;;;7.28;3.20;;;4.40;99.90;;;;;;5048152;28;20574;-68
2022/01/21 08:11:42;;;;;;;7.05;2.95;;;4.80;99.90;;;;;;5041148;28;20190;-67
2022/01/21 08:14:23;;;;;;;7.93;3.47;;;5.30;99.90;;;;;;5241517;22;20247;-66
2022/01/21 08:16:51;;;;;;;3.50;2.80;;;6.10;99.90;;;;;;5062792;28;20235;-74
2022/01/21 08:19:24;;;;;;;5.80;2.70;;;6.60;99.90;;;;;;5070664;28;20584;-75
2022/01/21 08:21:51;;;;;;;5.70;3.85;;;7.10;99.90;;;;;;5044352;28;20291;-66
2022/01/21 08:24:18;;;;;;;4.33;3.40;;;7.40;99.90;;;;;;5063352;28;20385;-74
2022/01/21 08:26:46;;;;;;;10.30;3.08;;;7.60;99.90;;;;;;5052422;28;20228;-68
2022/01/21 08:29:14;;;;;;;11.48;3.45;;;7.50;99.70;;;;;;5068259;28;20204;-68
2022/01/21 08:31:43;;;;;;;5.18;3.00;;;7.60;98.90;;;;;;5065392;28;20663;-68
2022/01/21 08:34:13;;;;;;;11.00;3.35;;;7.70;98.10;;;;;;5061841;28;20241;-75
2022/01/21 08:36:46;;;;;;;5.20;3.00;;;7.90;98.00;;;;;;5062384;28;20168;-72
2022/01/21 08:39:13;;;;;;;7.43;3.83;;;8.10;97.30;;;;;;5071017;28;20283;-76
2022/01/21 08:41:47;;;;;;;5.60;3.05;;;8.40;95.60;;;;;;5068818;28;20366;-76
2022/01/21 08:44:14;;;;;;;5.15;3.25;;;8.70;95.10;;;;;;5083956;28;20669;-68
2022/01/21 08:46:40;;;;;;;4.88;3.30;;;8.80;94.20;;;;;;5070148;28;20587;-75
2022/01/21 08:49:10;;;;;;;4.15;2.95;;;9.00;93.80;;;;;;5093352;28;20215;-68
2022/01/21 08:51:52;;;;;;;10.30;4.47;;;9.10;93.00;;;;;;5075441;28;20184;-76
2022/01/21 08:54:19;;;;;;;9.70;3.20;;;9.30;92.60;;;;;;5050775;28;20177;-69
2022/01/21 08:56:49;;;;;;;6.15;2.60;;;9.30;91.90;;;;;;5060174;28;20203;-66
2022/01/21 08:59:18;;;;;;;3.78;2.70;;;9.30;91.20;;;;;;5069605;28;20196;-74
2022/01/21 09:01:49;;;;;;;7.05;2.90;;;9.20;90.90;;;;;;5054069;28;20177;-67
2022/01/21 09:04:18;;;;;;;7.55;2.90;;;9.20;91.20;;;;;;5050136;28;20193;-67
2022/01/21 09:06:46;;;;;;;5.72;2.65;;;9.10;90.60;;;;;;5053197;28;21073;-69
2022/01/21 09:09:26;;;;;;;9.45;3.30;;;9.10;90.60;;;;;;5058942;28;20205;-67
2022/01/21 09:11:59;;;;;;;5.18;2.90;;;9.00;90.20;;;;;;5060255;28;20188;-68
2022/01/21 09:14:30;;;;;;;5.47;2.65;;;8.90;90.40;;;;;;5047878;28;20221;-67
2022/01/21 09:17:02;;;;;;;12.90;3.10;;;8.70;90.50;;;;;;5033309;28;20276;-67
2022/01/21 09:19:32;;;;;;;4.93;1.95;;;8.70;90.30;;;;;;5048382;28;20176;-74
2022/01/21 09:22:02;;;;;;;8.90;3.08;;;8.50;89.90;;;;;;5050350;28;20185;-68
2022/01/21 09:24:32;;;;;;;3.70;2.42;;;8.30;90.10;;;;;;5051170;28;20172;-67
2022/01/21 09:27:00;;;;;;;8.35;2.53;;;8.10;90.10;;;;;;5067314;28;20197;-68
2022/01/21 09:32:14;;;;;;;5.75;2.25;;;7.90;89.80;;;;;;5064835;28;20204;-68
2022/01/21 09:34:45;;;;;;;3.85;2.55;;;7.60;90.10;;;;;;5049800;28;20169;-68
2022/01/21 09:37:18;;;;;;;2.30;2.10;;;7.40;90.10;;;;;;5049944;28;20617;-75
2022/01/21 09:39:45;;;;;;;2.50;2.00;;;7.30;90.20;;;;;;5048432;28;20230;-74
2022/01/21 09:42:14;;;;;;;3.33;2.33;;;7.20;90.50;;;;;;5051200;28;20215;-68
2022/01/21 09:44:48;;;;;;;3.35;2.05;;;7.20;91.00;;;;;;5047260;28;20188;-75
2022/01/21 09:47:18;;;;;;;9.18;2.10;;;7.50;90.10;;;;;;5052437;28;20212;-68
2022/01/21 09:49:45;;;;;;;3.78;2.20;;;7.60;89.80;;;;;;5052891;28;20541;-67
2022/01/21 09:55:22;;;;;;;2.72;2.00;;;8.00;88.90;;;;;;5065724;28;20276;-68
2022/01/21 09:57:53;;;;;;;8.77;2.75;;;8.50;87.80;;;;;;5052692;28;20611;-73
2022/01/21 10:00:22;;;;;;;6.25;3.40;;;8.80;87.30;;;;;;5054206;28;20275;-72
2022/01/21 10:02:50;;;;;;;4.38;2.58;;;8.80;85.20;;;;;;5047767;28;20721;-74
2022/01/21 10:05:24;;;;;;;3.50;2.50;;;8.70;85.50;;;;;;5033325;28;20182;-75
2022/01/21 10:07:53;;;;;;;3.75;2.10;;;8.60;86.60;;;;;;5033328;28;20221;-66
2022/01/21 10:10:27;;;;;;;5.70;2.50;;;8.70;86.60;;;;;;5047987;28;20177;-74
2022/01/21 10:13:02;;;;;;;3.72;1.90;;;8.60;84.50;;;;;;5068553;28;20240;-73
2022/01/21 10:15:34;;;;;;;6.57;2.10;;;8.30;85.30;;;;;;5042340;28;20180;-73
2022/01/21 10:18:12;;;;;;;4.10;2.15;;;8.00;84.70;;;;;;5065176;28;20228;-67
2022/01/21 10:20:57;;;;;;;4.72;2.28;;;7.70;85.20;;;;;;5066430;28;20185;-67
2022/01/21 10:23:26;;;;;;;1.98;1.67;;;7.20;86.10;;;;;;5051976;28;20564;-68
2022/01/21 10:26:10;;;;;;;3.75;2.35;;;6.70;87.30;;;;;;5056699;28;20181;-67
2022/01/21 10:28:43;;;;;;;7.20;2.05;;;6.30;88.50;;;;;;5055324;28;20592;-73
2022/01/21 10:31:13;;;;;;;3.38;2.38;;;5.80;87.80;;;;;;5050893;28;20712;-73
2022/01/21 10:33:48;;;;;;;3.58;1.63;;;5.40;89.10;;;;;;5049808;28;20208;-67
2022/01/21 10:36:44;;;;;;;4.45;1.92;;;5.20;90.10;;;;;;5050891;28;20633;-73
2022/01/21 10:39:28;;;;;;;3.60;2.60;;;5.10;89.90;;;;;;5050967;28;20251;-66
2022/01/21 10:41:58;;;;;;;4.22;2.53;;;4.90;90.10;;;;;;5046746;28;20197;-74
2022/01/21 10:44:28;;;;;;;7.32;2.40;;;4.80;90.30;;;;;;5062306;28;20295;-75
2022/01/21 10:47:02;;;;;;;5.20;2.20;;;4.70;90.50;;;;;;5055263;28;20193;-73
2022/01/21 10:49:35;;;;;;;2.70;1.98;;;4.70;90.00;;;;;;5053467;28;20215;-74
2022/01/21 10:56:48;;;;;;;4.30;2.47;;;4.70;90.30;;;;;;5013707;28;20192;-67
2022/01/21 10:59:46;;;;;;;4.90;2.38;;;4.80;90.40;;;;;;5053070;28;20265;-73
2022/01/21 11:02:14;;;;;;;11.98;2.85;;;4.90;90.40;;;;;;5051275;28;20675;-74
2022/01/21 11:04:41;;;;;;;6.60;2.22;;;4.90;90.80;;;;;;5052789;28;20338;-74
2022/01/21 11:07:15;;;;;;;5.80;2.15;;;4.80;90.80;;;;;;5049052;28;20584;-74
2022/01/21 11:09:50;;;;;;;7.85;2.70;;;4.80;91.20;;;;;;5047851;28;20261;-74
2022/01/21 11:12:17;;;;;;;5.47;2.40;;;4.70;90.30;;;;;;5054169;28;20223;-67
2022/01/21 11:14:58;;;;;;;3.85;2.47;;;4.70;90.30;;;;;;5055140;28;20225;-73
2022/01/21 11:17:25;;;;;;;4.20;2.40;;;4.60;90.10;;;;;;5053883;28;20212;-67
2022/01/21 11:20:01;;;;;;;6.47;3.10;;;4.40;90.00;;;;;;5050214;28;20200;-67
2022/01/21 11:22:30;;;;;;;4.25;2.50;;;4.20;90.00;;;;;;5055120;28;20212;-67
2022/01/21 11:25:00;;;;;;;5.43;2.55;;;4.00;90.30;;;;;;5056953;28;20238;-67
2022/01/21 11:27:28;;;;;;;6.85;2.58;;;3.90;91.10;;;;;;5053735;28;20209;-68
2022/01/21 11:30:00;;;;;;;2.92;2.70;;;3.80;91.60;;;;;;5039609;28;20772;-73
2022/01/21 11:32:27;;;;;;;5.55;2.60;;;3.90;91.00;;;;;;5052641;28;20283;-75
2022/01/21 11:34:56;;;;;;;4.50;2.17;;;3.90;90.90;;;;;;5054454;28;20173;-68
2022/01/21 11:37:23;;;;;;;5.30;2.53;;;3.90;91.00;;;;;;5051791;28;20205;-75
2022/01/21 11:39:53;;;;;;;2.78;2.58;;;3.80;91.10;;;;;;5047525;28;20193;-68
2022/01/21 11:42:29;;;;;;;2.88;2.10;;;3.70;91.40;;;;;;5055794;28;20300;-74
2022/01/21 11:45:17;;;;;;;3.90;2.00;;;3.70;91.90;;;;;;5048392;28;21109;-68
2022/01/21 11:48:49;;;;;;;8.90;3.05;;;3.70;91.70;;;;;;5047760;28;20227;-76
2022/01/21 11:50:38;;;;;;;2.30;2.10;;;3.80;92.20;;;;;;5064687;28;20777;-66
2022/01/21 11:53:05;;;;;;;4.25;2.35;;;4.10;91.50;;;;;;5045732;28;20402;-74
2022/01/21 11:55:36;;;;;;;4.72;2.10;;;4.30;91.00;;;;;;5057886;28;20189;-74
2022/01/21 11:58:23;;;;;;;7.10;2.75;;;4.40;90.90;;;;;;5035563;28;20206;-74
2022/01/21 12:00:56;;;;;;;5.30;2.83;;;4.50;91.30;;;;;;5049069;28;20178;-74
2022/01/21 12:03:23;;;;;;;4.20;2.75;;;4.70;91.40;;;;;;5040564;28;20210;-67
2022/01/21 12:05:56;;;;;;;3.30;2.10;;;4.80;91.10;;;;;;5041850;28;20259;-74
2022/01/21 12:08:46;;;;;;;10.68;2.60;;;4.80;90.60;;;;;;5064535;28;20252;-67
2022/01/21 12:11:38;;;;;;;2.80;1.83;;;4.80;89.70;;;;;;5052278;28;20181;-67
2022/01/21 12:14:31;;;;;;;4.07;2.20;;;4.80;88.60;;;;;;5055342;28;20237;-67
2022/01/21 12:17:12;;;;;;;2.30;1.60;;;4.70;90.00;;;;;;5046028;28;20200;-68
2022/01/21 12:19:41;;;;;;;2.50;1.50;;;4.70;89.80;;;;;;5071727;28;20174;-72
2022/01/21 12:22:25;;;;;;;1.60;1.40;;;4.70;88.60;;;;;;5047674;28;20247;-67
2022/01/21 12:25:16;;;;;;;3.47;1.90;;;4.70;90.10;;;;;;5046915;28;20182;-74
2022/01/21 12:28:15;;;;;;;4.40;1.60;;;4.70;90.30;;;;;;5046869;28;20575;-74
2022/01/21 12:30:54;;;;;;;2.83;2.10;;;4.90;89.60;;;;;;5057920;28;20199;-75
2022/01/21 12:33:21;;;;;;;4.35;1.83;;;5.00;89.20;;;;;;5048219;28;20209;-67
2022/01/21 12:35:47;;;;;;;2.50;1.33;;;5.00;89.30;;;;;;5051013;28;20179;-70
2022/01/21 12:41:19;;;;;;;7.35;1.85;;;5.10;88.40;;;;;;5048126;28;20177;-67
2022/01/21 12:43:50;;;;;;;2.90;1.98;;;5.10;89.20;;;;;;5037575;28;20208;-75
2022/01/21 12:46:29;;;;;;;4.30;1.55;;;5.10;88.50;;;;;;5040693;28;20181;-75
2022/01/21 12:48:59;;;;;;;2.95;2.05;;;5.00;89.40;;;;;;5036324;28;20213;-74
2022/01/21 12:56:47;;;;;;;3.40;2.40;;;4.60;90.40;;;;;;5042159;28;20238;-76
2022/01/21 12:59:20;;;;;;;4.85;2.10;;;4.50;90.80;;;;;;5040144;28;20176;-75
2022/01/21 13:01:50;;;;;;;3.05;2.25;;;4.40;91.00;;;;;;5041658;28;20849;-68
2022/01/21 13:04:27;;;;;;;7.10;2.42;;;4.40;91.30;;;;;;5060049;28;20272;-68
2022/01/21 13:07:18;;;;;;;2.90;2.58;;;4.40;91.50;;;;;;5045979;28;20182;-73
2022/01/21 13:10:23;;;;;;;3.05;2.10;;;4.40;91.20;;;;;;5048199;28;20571;-67
2022/01/21 13:15:46;;;;;;;4.22;2.00;;;4.40;91.80;;;;;;5061013;28;20235;-75
2022/01/21 13:18:14;;;;;;;5.43;2.75;;;4.50;91.60;;;;;;5041422;28;20212;-75
2022/01/21 13:23:50;;;;;;;5.03;2.40;;;4.50;91.20;;;;;;5056590;27;21128;-68
2022/01/21 13:26:16;;;;;;;6.25;2.95;;;4.50;91.30;;;;;;5058791;28;20296;-74
2022/01/21 13:29:02;;;;;;;3.10;2.80;;;4.40;91.60;;;;;;5036132;28;20350;-68
2022/01/21 13:31:31;;;;;;;5.22;2.75;;;4.20;92.00;;;;;;5038919;28;20753;-75
2022/01/21 13:34:12;;;;;;;5.82;2.85;;;4.20;92.20;;;;;;5036678;28;20266;-68
2022/01/21 13:36:54;;;;;;;5.90;2.20;;;4.10;92.60;;;;;;5022503;28;20742;-75
2022/01/21 13:39:27;;;;;;;6.03;3.20;;;4.20;92.30;;;;;;5049241;28;20173;-68
2022/01/21 13:42:18;;;;;;;3.75;2.40;;;4.20;92.30;;;;;;5056172;28;20239;-75
2022/01/21 13:44:55;;;;;;;3.10;2.53;;;4.30;92.30;;;;;;5037690;28;20181;-75
2022/01/21 13:47:39;;;;;;;3.92;2.60;;;4.40;92.20;;;;;;5031773;28;20553;-68
2022/01/21 13:50:26;;;;;;;4.80;2.20;;;4.50;92.00;;;;;;5038626;28;20196;-67
2022/01/21 13:52:54;;;;;;;4.25;2.50;;;4.60;91.50;;;;;;5056371;28;20402;-75
2022/01/21 13:55:25;;;;;;;2.78;2.47;;;4.70;91.50;;;;;;5039221;28;20251;-75
2022/01/21 13:58:01;;;;;;;4.85;2.90;;;4.80;91.80;;;;;;5044467;28;20267;-75
2022/01/21 14:00:30;;;;;;;4.00;2.25;;;4.90;91.70;;;;;;5043131;28;20196;-75
2022/01/21 14:03:08;;;;;;;6.43;2.53;;;5.10;91.80;;;;;;5043789;28;20332;-68
2022/01/21 14:05:53;;;;;;;5.68;3.22;;;5.30;91.60;;;;;;5042448;28;20676;-68
2022/01/21 14:08:36;;;;;;;6.15;2.85;;;5.60;91.50;;;;;;5044998;28;20627;-75
2022/01/21 14:11:05;;;;;;;5.63;2.20;;;5.90;91.10;;;;;;5063457;28;20279;-68
2022/01/21 14:13:35;;;;;;;6.15;2.95;;;6.20;90.80;;;;;;5037290;28;20208;-68
2022/01/21 14:16:06;;;;;;;7.63;4.65;;;6.50;90.30;;;;;;5046719;28;20181;-68
2022/01/21 14:18:34;;;;;;;14.02;5.70;;;6.80;90.00;;;;;;5050724;28;20208;-75
2022/01/21 14:21:31;;;;;;;15.43;6.32;;;7.00;89.40;;;;;;5054577;28;20174;-67
2022/01/21 14:24:14;;;;;;;17.77;7.50;;;7.10;88.90;;;;;;5044935;28;20213;-75
2022/01/21 14:26:50;;;;;;;14.48;7.60;;;7.20;88.40;;;;;;5048045;28;20198;-68
2022/01/21 14:29:27;;;;;;;10.77;4.72;;;7.10;88.10;;;;;;5050140;28;20183;-68
2022/01/21 14:31:54;;;;;;;9.68;4.15;;;7.00;88.60;;;;;;5048830;28;20556;-66
2022/01/21 14:34:30;;;;;;;4.50;2.70;;;6.90;88.40;;;;;;5033112;28;20636;-67
2022/01/21 14:37:04;;;;;;;6.53;3.00;;;6.80;89.10;;;;;;5030983;28;20181;-67
2022/01/21 14:39:38;;;;;;;3.85;2.17;;;6.70;88.60;;;;;;5017410;28;20190;-74